ITY109 EHAM-LIRF
Flight info
| Callsign | ITY109 |
|---|---|
| Flight time | N/A |
| Altitude | 39000 |
| Route | EDUPO Z739 MISGO DCT ASBON DCT TUSUK DCT ULNOK L607 ABUKA DCT TEDGO DCT BATUB DCT TIRUL M738 NATAG DCT LORLO DCT GAVRA DCT RITEB |
| Aircraft | A319/M-SDE3FGHIRWY/LB1 |
Departure
| Time | 2026-04-29 10:48 |
|---|---|
| Airport | Amsterdam Airport Schiphol (EHAM) |
Arrival
| Time | N/A |
|---|---|
| Airport | Rome–Fiumicino Leonardo da Vinci International Airport (LIRF) |
| Time | Latitude | Longitude | Altitude | Speed | Heading |
|---|---|---|---|---|---|
| 2026-04-29 10:10 | 52.30468 | 4.76568 | -2 ft | 0 kts | 57° |
| 2026-04-29 10:33 | 52.30466 | 4.76564 | -2 ft | 2 kts | 57° |
| 2026-04-29 10:33 | 52.30458 | 4.76541 | -2 ft | 2 kts | 65° |
| 2026-04-29 10:33 | 52.30452 | 4.76516 | -2 ft | 2 kts | 87° |
| 2026-04-29 10:34 | 52.30456 | 4.76490 | -2 ft | 2 kts | 139° |
| 2026-04-29 10:34 | 52.30464 | 4.76479 | -2 ft | 1 kts | 147° |
| 2026-04-29 10:37 | 52.30454 | 4.76489 | -2 ft | 4 kts | 147° |
| 2026-04-29 10:37 | 52.30416 | 4.76529 | -2 ft | 8 kts | 147° |
| 2026-04-29 10:37 | 52.30362 | 4.76584 | -2 ft | 10 kts | 156° |
| 2026-04-29 10:37 | 52.30296 | 4.76522 | -2 ft | 14 kts | 237° |
| 2026-04-29 10:38 | 52.30236 | 4.76367 | -2 ft | 17 kts | 238° |
| 2026-04-29 10:38 | 52.30174 | 4.76204 | -2 ft | 17 kts | 238° |
| 2026-04-29 10:38 | 52.30110 | 4.76037 | -2 ft | 18 kts | 238° |
| 2026-04-29 10:38 | 52.30044 | 4.75865 | -2 ft | 18 kts | 238° |
| 2026-04-29 10:39 | 52.29977 | 4.75689 | -2 ft | 18 kts | 238° |
| 2026-04-29 10:39 | 52.29908 | 4.75512 | -2 ft | 19 kts | 238° |
| 2026-04-29 10:39 | 52.29836 | 4.75315 | -2 ft | 21 kts | 245° |
| 2026-04-29 10:39 | 52.29887 | 4.75108 | -2 ft | 22 kts | 311° |
| 2026-04-29 10:40 | 52.29991 | 4.74916 | -2 ft | 23 kts | 311° |
| 2026-04-29 10:40 | 52.30099 | 4.74715 | -2 ft | 24 kts | 311° |
| 2026-04-29 10:40 | 52.30211 | 4.74508 | -2 ft | 25 kts | 311° |
| 2026-04-29 10:40 | 52.30326 | 4.74294 | -2 ft | 25 kts | 311° |
| 2026-04-29 10:41 | 52.30461 | 4.74195 | -2 ft | 22 kts | 1° |
| 2026-04-29 10:41 | 52.30618 | 4.74208 | -2 ft | 23 kts | 3° |
| 2026-04-29 10:41 | 52.30778 | 4.74223 | -2 ft | 23 kts | 3° |
| 2026-04-29 10:41 | 52.30944 | 4.74238 | -2 ft | 26 kts | 3° |
| 2026-04-29 10:42 | 52.31130 | 4.74256 | -2 ft | 27 kts | 3° |
| 2026-04-29 10:42 | 52.31318 | 4.74274 | -2 ft | 27 kts | 5° |
| 2026-04-29 10:42 | 52.31503 | 4.74290 | -2 ft | 27 kts | 3° |
| 2026-04-29 10:42 | 52.31699 | 4.74309 | 0 ft | 30 kts | 3° |
| 2026-04-29 10:43 | 52.31868 | 4.74325 | -5 ft | 19 kts | 3° |
| 2026-04-29 10:43 | 52.31979 | 4.74333 | -6 ft | 16 kts | 358° |
| 2026-04-29 10:43 | 52.32034 | 4.74203 | -6 ft | 15 kts | 271° |
| 2026-04-29 10:43 | 52.32037 | 4.74011 | -5 ft | 19 kts | 273° |
| 2026-04-29 10:44 | 52.32046 | 4.73787 | 0 ft | 21 kts | 274° |
| 2026-04-29 10:44 | 52.32057 | 4.73530 | 1 ft | 25 kts | 274° |
| 2026-04-29 10:44 | 52.32141 | 4.73281 | 0 ft | 29 kts | 321° |
| 2026-04-29 10:44 | 52.32301 | 4.73057 | -4 ft | 25 kts | 319° |
| 2026-04-29 10:45 | 52.32446 | 4.72852 | -3 ft | 29 kts | 319° |
| 2026-04-29 10:45 | 52.32583 | 4.72657 | -3 ft | 25 kts | 319° |
| 2026-04-29 10:45 | 52.32717 | 4.72449 | -7 ft | 31 kts | 311° |
| 2026-04-29 10:45 | 52.32863 | 4.72176 | -2 ft | 33 kts | 311° |
| 2026-04-29 10:46 | 52.32996 | 4.71931 | -2 ft | 25 kts | 311° |
| 2026-04-29 10:46 | 52.33101 | 4.71736 | -2 ft | 21 kts | 311° |
| 2026-04-29 10:46 | 52.33149 | 4.71550 | -1 ft | 20 kts | 259° |
| 2026-04-29 10:46 | 52.33151 | 4.71398 | -1 ft | 13 kts | 317° |
| 2026-04-29 10:47 | 52.33229 | 4.71244 | -2 ft | 25 kts | 313° |
| 2026-04-29 10:47 | 52.33361 | 4.70997 | -3 ft | 26 kts | 311° |
| 2026-04-29 10:47 | 52.33456 | 4.70937 | -3 ft | 13 kts | 4° |
| 2026-04-29 10:47 | 52.33644 | 4.70956 | 2 ft | 61 kts | 4° |
| 2026-04-29 10:48 | 52.34333 | 4.71020 | -6 ft | 133 kts | 4° |
| 2026-04-29 10:48 | 52.35383 | 4.71104 | 410 ft | 152 kts | 9° |
| 2026-04-29 10:48 | 52.36430 | 4.71182 | 1285 ft | 159 kts | 10° |
| 2026-04-29 10:48 | 52.37631 | 4.71325 | 1773 ft | 188 kts | 11° |
| 2026-04-29 10:49 | 52.39045 | 4.71499 | 2394 ft | 217 kts | 10° |
| 2026-04-29 10:49 | 52.40630 | 4.71678 | 3088 ft | 239 kts | 9° |
| 2026-04-29 10:49 | 52.42346 | 4.71975 | 3941 ft | 252 kts | 18° |
| 2026-04-29 10:49 | 52.43943 | 4.73110 | 5051 ft | 251 kts | 32° |
| 2026-04-29 10:50 | 52.45463 | 4.74539 | 6134 ft | 253 kts | 34° |
| 2026-04-29 10:50 | 52.46838 | 4.76339 | 7148 ft | 255 kts | 52° |
| 2026-04-29 10:50 | 52.47774 | 4.78798 | 8108 ft | 257 kts | 68° |
| 2026-04-29 10:50 | 52.48245 | 4.81639 | 9070 ft | 261 kts | 83° |
| 2026-04-29 10:51 | 52.48394 | 4.84626 | 10078 ft | 265 kts | 85° |
| 2026-04-29 10:51 | 52.48442 | 4.87676 | 10987 ft | 270 kts | 95° |
| 2026-04-29 10:51 | 52.47959 | 4.90676 | 11884 ft | 276 kts | 112° |
| 2026-04-29 10:51 | 52.46921 | 4.93346 | 12802 ft | 282 kts | 129° |
| 2026-04-29 10:52 | 52.45419 | 4.95446 | 13705 ft | 289 kts | 142° |
| 2026-04-29 10:52 | 52.43758 | 4.97356 | 14306 ft | 302 kts | 142° |
| 2026-04-29 10:52 | 52.41976 | 4.99411 | 14654 ft | 323 kts | 142° |
| 2026-04-29 10:52 | 52.40115 | 5.01557 | 15229 ft | 331 kts | 142° |
| 2026-04-29 10:53 | 52.38212 | 5.03750 | 15948 ft | 336 kts | 142° |
| 2026-04-29 10:53 | 52.36288 | 5.05969 | 16676 ft | 340 kts | 142° |
| 2026-04-29 10:53 | 52.34333 | 5.08236 | 17411 ft | 344 kts | 140° |
| 2026-04-29 10:53 | 52.32559 | 5.10877 | 18124 ft | 346 kts | 130° |
| 2026-04-29 10:54 | 52.30951 | 5.13837 | 18829 ft | 350 kts | 129° |
| 2026-04-29 10:54 | 52.29318 | 5.16823 | 19485 ft | 354 kts | 130° |
| 2026-04-29 10:54 | 52.27663 | 5.19833 | 20146 ft | 358 kts | 130° |
| 2026-04-29 10:54 | 52.25988 | 5.22867 | 20790 ft | 362 kts | 130° |
| 2026-04-29 10:55 | 52.24319 | 5.25967 | 21446 ft | 365 kts | 126° |
| 2026-04-29 10:55 | 52.22841 | 5.29309 | 22081 ft | 368 kts | 123° |
| 2026-04-29 10:55 | 52.21347 | 5.32752 | 22725 ft | 371 kts | 123° |
| 2026-04-29 10:55 | 52.19846 | 5.36213 | 23364 ft | 375 kts | 124° |
| 2026-04-29 10:56 | 52.18334 | 5.39699 | 23991 ft | 379 kts | 124° |
| 2026-04-29 10:56 | 52.16804 | 5.43222 | 24495 ft | 383 kts | 124° |
| 2026-04-29 10:56 | 52.15274 | 5.46736 | 24998 ft | 386 kts | 124° |
| 2026-04-29 10:56 | 52.13701 | 5.50336 | 25496 ft | 390 kts | 124° |
| 2026-04-29 10:57 | 52.12113 | 5.53959 | 25986 ft | 394 kts | 124° |
| 2026-04-29 10:57 | 52.10515 | 5.57599 | 26447 ft | 398 kts | 124° |
| 2026-04-29 10:57 | 52.08919 | 5.61231 | 26906 ft | 401 kts | 124° |
| 2026-04-29 10:57 | 52.07281 | 5.64963 | 27371 ft | 405 kts | 124° |
| 2026-04-29 10:58 | 52.05570 | 5.68643 | 27812 ft | 410 kts | 129° |
| 2026-04-29 10:58 | 52.03709 | 5.72127 | 28255 ft | 413 kts | 130° |
| 2026-04-29 10:58 | 52.01810 | 5.75669 | 28715 ft | 417 kts | 130° |
| 2026-04-29 10:58 | 51.99896 | 5.79229 | 29168 ft | 420 kts | 130° |
| 2026-04-29 10:59 | 51.97966 | 5.82814 | 29595 ft | 424 kts | 130° |
| 2026-04-29 10:59 | 51.96016 | 5.86440 | 30017 ft | 428 kts | 130° |
| 2026-04-29 10:59 | 51.94050 | 5.90110 | 30440 ft | 431 kts | 129° |
| 2026-04-29 10:59 | 51.92089 | 5.93775 | 30797 ft | 434 kts | 129° |
| 2026-04-29 11:00 | 51.90087 | 5.97513 | 31152 ft | 437 kts | 130° |
| 2026-04-29 11:00 | 51.88083 | 6.01241 | 31506 ft | 440 kts | 130° |
| 2026-04-29 11:00 | 51.86066 | 6.04979 | 31859 ft | 442 kts | 130° |
| 2026-04-29 11:00 | 51.84035 | 6.08737 | 32194 ft | 444 kts | 130° |
| 2026-04-29 11:01 | 51.82030 | 6.12433 | 32682 ft | 443 kts | 130° |
| 2026-04-29 11:01 | 51.79996 | 6.16166 | 33171 ft | 442 kts | 131° |
| 2026-04-29 11:01 | 51.77965 | 6.19884 | 33658 ft | 441 kts | 131° |
| 2026-04-29 11:01 | 51.75936 | 6.23588 | 34144 ft | 440 kts | 131° |
| 2026-04-29 11:02 | 51.73910 | 6.27283 | 34585 ft | 439 kts | 131° |
| 2026-04-29 11:02 | 51.71888 | 6.30970 | 34952 ft | 439 kts | 131° |
| 2026-04-29 11:02 | 51.69858 | 6.34664 | 35281 ft | 440 kts | 131° |
| 2026-04-29 11:02 | 51.67822 | 6.38354 | 35592 ft | 441 kts | 131° |
| 2026-04-29 11:03 | 51.65784 | 6.42046 | 35885 ft | 442 kts | 131° |
| 2026-04-29 11:03 | 51.63736 | 6.45755 | 36167 ft | 443 kts | 131° |
| 2026-04-29 11:03 | 51.61687 | 6.49463 | 36450 ft | 444 kts | 131° |
| 2026-04-29 11:03 | 51.59633 | 6.53178 | 36737 ft | 445 kts | 131° |
| 2026-04-29 11:04 | 51.57788 | 6.56511 | 36984 ft | 446 kts | 131° |
| 2026-04-29 11:04 | 51.55721 | 6.60238 | 37242 ft | 447 kts | 131° |
| 2026-04-29 11:04 | 51.53650 | 6.63969 | 37513 ft | 448 kts | 131° |
| 2026-04-29 11:04 | 51.51575 | 6.67702 | 37772 ft | 449 kts | 131° |
| 2026-04-29 11:05 | 51.49493 | 6.71445 | 38028 ft | 449 kts | 131° |
| 2026-04-29 11:05 | 51.47405 | 6.75195 | 38271 ft | 450 kts | 131° |
| 2026-04-29 11:05 | 51.45337 | 6.78901 | 38516 ft | 451 kts | 131° |
| 2026-04-29 11:05 | 51.43231 | 6.82663 | 38766 ft | 452 kts | 132° |
| 2026-04-29 11:06 | 51.41068 | 6.86332 | 39006 ft | 452 kts | 138° |
| 2026-04-29 11:06 | 51.38608 | 6.89464 | 39185 ft | 452 kts | 147° |
| 2026-04-29 11:06 | 51.36848 | 6.91249 | 39276 ft | 453 kts | 148° |